Time;durP1;ratioP1;P1;durP2;ratioP2;P2;SDS_P1;SDS_P2;PMS_P1;PMS_P2;Temp;Humidity;BMP_temperature;BMP_pressure;BME280_temperature;BME280_humidity;BME280_pressure;Samples;Min_cycle;Max_cycle;Signal;HPM_P1;HPM_P2
2023/03/18 00:01:54;;;;;;;;;;;;;;;;;;2212825;67;1000;-68
2023/03/18 00:04:25;;;;;;;;;;;;;;;;;;2212931;67;1092;-68
2023/03/18 00:06:55;;;;;;;;;;;;;;;;;;2212650;67;1908;-68
2023/03/18 00:09:33;;;;;;;;;;;;;;;;;;2212863;66;1242;-68
2023/03/18 00:12:05;;;;;;;;;;;;;;;;;;2211917;67;1055;-68
2023/03/18 00:14:36;;;;;;;;;;;;;;;;;;2212818;66;965;-68
2023/03/18 00:17:07;;;;;;;;;;;;;;;;;;2212905;67;1129;-68
2023/03/18 00:19:37;;;;;;;;;;;;;;;;;;2212161;59;1143;-68
2023/03/18 00:22:09;;;;;;;;;;;;;;;;;;2213364;67;1131;-68
2023/03/18 00:24:39;;;;;;;;;;;;;;;;;;2212938;67;1073;-68
2023/03/18 00:27:10;;;;;;;;;;;;;;;;;;2212965;59;1954;-68
2023/03/18 00:29:44;;;;;;;;;;;;;;;;;;2213201;67;1147;-68
2023/03/18 00:32:17;;;;;;;;;;;;;;;;;;2213533;66;1143;-68
2023/03/18 00:34:57;;;;;;;;;;;;;;;;;;2212401;59;1963;-68
2023/03/18 00:37:30;;;;;;;;;;;;;;;;;;2212355;59;1832;-68
2023/03/18 00:40:05;;;;;;;;;;;;;;;;;;2212621;67;1186;-69
2023/03/18 00:42:46;;;;;;;;;;;;;;;;;;2212104;67;1157;-68
2023/03/18 00:45:16;;;;;;;;;;;;;;;;;;2213217;59;1108;-68
2023/03/18 00:48:02;;;;;;;;;;;;;;;;;;2214936;58;1941;-68
2023/03/18 00:50:34;;;;;;;;;;;;;;;;;;2212673;67;1136;-68
2023/03/18 00:53:05;;;;;;;;;;;;;;;;;;2212674;67;1122;-69
2023/03/18 00:55:35;;;;;;;;;;;;;;;;;;2212821;59;1246;-68
2023/03/18 00:58:12;;;;;;;;;;;;;;;;;;2208739;67;1247;-68
2023/03/18 01:00:42;;;;;;;;;;;;;;;;;;2212782;67;1155;-68
2023/03/18 01:03:13;;;;;;;;;;;;;;;;;;2215543;59;1041;-69
2023/03/18 01:05:44;;;;;;;;;;;;;;;;;;2212944;66;1117;-68
2023/03/18 01:08:14;;;;;;;;;;;;;;;;;;2213011;67;1941;-69
2023/03/18 01:10:44;;;;;;;;;;;;;;;;;;2212307;59;1133;-68
2023/03/18 01:13:15;;;;;;;;;;;;;;;;;;2213138;67;1167;-68
2023/03/18 01:15:45;;;;;;;;;;;;;;;;;;2212321;66;1076;-68
2023/03/18 01:18:16;;;;;;;;;;;;;;;;;;2213104;67;1214;-68
2023/03/18 01:20:47;;;;;;;;;;;;;;;;;;2212552;66;1180;-68
2023/03/18 01:23:17;;;;;;;;;;;;;;;;;;2213074;67;1292;-68
2023/03/18 01:25:49;;;;;;;;;;;;;;;;;;2212484;66;1010;-68
2023/03/18 01:28:21;;;;;;;;;;;;;;;;;;2215050;59;1927;-68
2023/03/18 01:30:52;;;;;;;;;;;;;;;;;;2211340;67;1730;-68
2023/03/18 01:33:27;;;;;;;;;;;;;;;;;;2212834;66;1057;-68
2023/03/18 01:35:59;;;;;;;;;;;;;;;;;;2212032;59;1037;-69
2023/03/18 01:38:30;;;;;;;;;;;;;;;;;;2212313;67;1203;-68
2023/03/18 01:41:00;;;;;;;;;;;;;;;;;;2211880;67;1157;-68
2023/03/18 01:43:32;;;;;;;;;;;;;;;;;;2212289;66;1013;-68
2023/03/18 01:46:43;;;;;;;;;;;;;;;;;;2214546;59;1991;-68
2023/03/18 01:49:16;;;;;;;;;;;;;;;;;;2196610;67;1410;-68
2023/03/18 01:51:57;;;;;;;;;;;;;;;;;;2196440;67;1129;-68
2023/03/18 01:54:30;;;;;;;;;;;;;;;;;;2206240;67;1102;-68
2023/03/18 01:57:01;;;;;;;;;;;;;;;;;;2212836;66;1132;-68
2023/03/18 01:59:35;;;;;;;;;;;;;;;;;;2215432;66;1221;-68
2023/03/18 02:02:10;;;;;;;;;;;;;;;;;;2212732;66;1041;-68
2023/03/18 02:04:43;;;;;;;;;;;;;;;;;;2212186;66;1080;-68
2023/03/18 02:07:17;;;;;;;;;;;;;;;;;;2212014;67;1923;-69
2023/03/18 02:09:49;;;;;;;;;;;;;;;;;;2211936;66;1249;-68
2023/03/18 02:12:24;;;;;;;;;;;;;;;;;;2209353;67;1407;-68
2023/03/18 02:14:55;;;;;;;;;;;;;;;;;;2211785;67;1200;-68
2023/03/18 02:17:28;;;;;;;;;;;;;;;;;;2212742;59;1076;-68
2023/03/18 02:20:21;;;;;;;;;;;;;;;;;;2211788;67;1291;-68
2023/03/18 02:23:05;;;;;;;;;;;;;;;;;;2210527;67;1420;-68
2023/03/18 02:25:38;;;;;;;;;;;;;;;;;;2212263;67;1009;-68
2023/03/18 02:28:11;;;;;;;;;;;;;;;;;;2212083;67;2273;-68
2023/03/18 02:30:44;;;;;;;;;;;;;;;;;;2212321;67;1159;-68
2023/03/18 02:33:15;;;;;;;;;;;;;;;;;;2212363;67;1151;-68
2023/03/18 02:35:48;;;;;;;;;;;;;;;;;;2211962;66;1199;-68
2023/03/18 02:38:22;;;;;;;;;;;;;;;;;;2212497;67;1304;-69
2023/03/18 02:40:52;;;;;;;;;;;;;;;;;;2212468;66;1001;-68
2023/03/18 02:43:23;;;;;;;;;;;;;;;;;;2212436;67;1104;-69
2023/03/18 02:46:00;;;;;;;;;;;;;;;;;;2212465;59;1050;-68
2023/03/18 02:48:33;;;;;;;;;;;;;;;;;;2212062;67;1193;-68
2023/03/18 02:51:05;;;;;;;;;;;;;;;;;;2211993;59;1295;-68
2023/03/18 02:53:35;;;;;;;;;;;;;;;;;;2214608;67;1216;-69
2023/03/18 02:56:13;;;;;;;;;;;;;;;;;;2211096;59;1179;-68
2023/03/18 02:58:51;;;;;;;;;;;;;;;;;;2211629;67;1291;-68
2023/03/18 03:01:21;;;;;;;;;;;;;;;;;;2212541;67;1154;-69
2023/03/18 03:03:52;;;;;;;;;;;;;;;;;;2211629;67;973;-68
2023/03/18 03:06:22;;;;;;;;;;;;;;;;;;2212446;67;2059;-69
2023/03/18 03:08:53;;;;;;;;;;;;;;;;;;2212003;67;1165;-68
2023/03/18 03:11:23;;;;;;;;;;;;;;;;;;2212780;67;1200;-68
2023/03/18 03:13:53;;;;;;;;;;;;;;;;;;2211872;67;1020;-68
2023/03/18 03:16:24;;;;;;;;;;;;;;;;;;2212068;67;1117;-68
2023/03/18 03:18:54;;;;;;;;;;;;;;;;;;2211868;67;1175;-68
2023/03/18 03:21:26;;;;;;;;;;;;;;;;;;2212246;67;1159;-68
2023/03/18 03:24:02;;;;;;;;;;;;;;;;;;2211388;67;1064;-68
2023/03/18 03:26:33;;;;;;;;;;;;;;;;;;2212021;59;1976;-68
2023/03/18 03:29:04;;;;;;;;;;;;;;;;;;2211927;67;1295;-69
2023/03/18 03:31:34;;;;;;;;;;;;;;;;;;2215144;67;1142;-68
2023/03/18 03:34:05;;;;;;;;;;;;;;;;;;2211834;67;1264;-68
2023/03/18 03:36:36;;;;;;;;;;;;;;;;;;2211171;67;1078;-66
2023/03/18 03:39:09;;;;;;;;;;;;;;;;;;2211597;59;1587;-68
2023/03/18 03:41:39;;;;;;;;;;;;;;;;;;2212261;59;1718;-68
2023/03/18 03:44:10;;;;;;;;;;;;;;;;;;2212928;67;1148;-68
2023/03/18 03:46:41;;;;;;;;;;;;;;;;;;2212373;67;1979;-69
2023/03/18 03:49:11;;;;;;;;;;;;;;;;;;2212941;67;1247;-69
2023/03/18 03:51:42;;;;;;;;;;;;;;;;;;2212434;67;1434;-68
2023/03/18 03:54:12;;;;;;;;;;;;;;;;;;2212948;66;1487;-68
2023/03/18 03:56:43;;;;;;;;;;;;;;;;;;2215291;66;1138;-68
2023/03/18 03:59:13;;;;;;;;;;;;;;;;;;2212527;66;1220;-68
2023/03/18 04:01:44;;;;;;;;;;;;;;;;;;2212694;66;1242;-68
2023/03/18 04:04:15;;;;;;;;;;;;;;;;;;2213314;67;976;-68
2023/03/18 04:06:46;;;;;;;;;;;;;;;;;;2213039;66;1928;-68
2023/03/18 04:09:16;;;;;;;;;;;;;;;;;;2213196;66;1171;-68
2023/03/18 04:11:47;;;;;;;;;;;;;;;;;;2212900;67;1212;-68
2023/03/18 04:14:17;;;;;;;;;;;;;;;;;;2215475;66;1150;-68
2023/03/18 04:16:48;;;;;;;;;;;;;;;;;;2212472;66;1203;-67
2023/03/18 04:19:18;;;;;;;;;;;;;;;;;;2212511;67;1271;-68
2023/03/18 04:21:50;;;;;;;;;;;;;;;;;;2211470;67;1785;-68
2023/03/18 04:24:20;;;;;;;;;;;;;;;;;;2212986;67;1126;-68
2023/03/18 04:26:51;;;;;;;;;;;;;;;;;;2212325;67;1995;-68
2023/03/18 04:29:21;;;;;;;;;;;;;;;;;;2212838;67;1284;-68
2023/03/18 04:31:51;;;;;;;;;;;;;;;;;;2212478;67;1056;-68
2023/03/18 04:34:22;;;;;;;;;;;;;;;;;;2212016;67;1140;-68
2023/03/18 04:36:54;;;;;;;;;;;;;;;;;;2211973;67;1188;-68
2023/03/18 04:39:24;;;;;;;;;;;;;;;;;;2212342;67;1244;-69
2023/03/18 04:41:55;;;;;;;;;;;;;;;;;;2212106;59;1159;-69
2023/03/18 04:44:26;;;;;;;;;;;;;;;;;;2212683;67;1174;-68
2023/03/18 04:46:56;;;;;;;;;;;;;;;;;;2211862;59;1935;-68
2023/03/18 04:49:27;;;;;;;;;;;;;;;;;;2214512;66;1296;-68
2023/03/18 04:51:57;;;;;;;;;;;;;;;;;;2211590;59;1411;-68
2023/03/18 04:54:28;;;;;;;;;;;;;;;;;;2211579;67;1037;-69
2023/03/18 04:56:58;;;;;;;;;;;;;;;;;;2211187;66;1160;-68
2023/03/18 04:59:28;;;;;;;;;;;;;;;;;;2212176;59;1167;-68
2023/03/18 05:01:59;;;;;;;;;;;;;;;;;;2211900;59;1043;-68
2023/03/18 05:04:29;;;;;;;;;;;;;;;;;;2212488;67;1194;-68
2023/03/18 05:07:00;;;;;;;;;;;;;;;;;;2212092;67;1928;-68
2023/03/18 05:09:38;;;;;;;;;;;;;;;;;;2211605;67;1348;-68
2023/03/18 05:12:12;;;;;;;;;;;;;;;;;;2214750;66;1205;-68
2023/03/18 05:14:42;;;;;;;;;;;;;;;;;;2212328;59;1073;-69
2023/03/18 05:17:15;;;;;;;;;;;;;;;;;;2211657;67;1146;-68
2023/03/18 05:19:46;;;;;;;;;;;;;;;;;;2212134;67;1285;-68
2023/03/18 05:22:18;;;;;;;;;;;;;;;;;;2211469;66;1063;-68
2023/03/18 05:24:48;;;;;;;;;;;;;;;;;;2211553;66;1222;-68
2023/03/18 05:27:18;;;;;;;;;;;;;;;;;;2212174;67;1929;-69
2023/03/18 05:29:49;;;;;;;;;;;;;;;;;;2212191;66;1231;-69
2023/03/18 05:32:19;;;;;;;;;;;;;;;;;;2212296;67;1086;-68
2023/03/18 05:34:50;;;;;;;;;;;;;;;;;;2214807;66;1292;-68
2023/03/18 05:37:20;;;;;;;;;;;;;;;;;;2211746;66;1077;-68
2023/03/18 05:39:53;;;;;;;;;;;;;;;;;;2211632;67;1166;-68
2023/03/18 05:42:24;;;;;;;;;;;;;;;;;;2211562;67;1030;-69
2023/03/18 05:44:55;;;;;;;;;;;;;;;;;;2212064;66;984;-69
2023/03/18 05:47:26;;;;;;;;;;;;;;;;;;2212180;59;1941;-68
2023/03/18 05:49:57;;;;;;;;;;;;;;;;;;2211075;67;1291;-68
2023/03/18 05:52:27;;;;;;;;;;;;;;;;;;2211900;59;1594;-68
2023/03/18 05:54:57;;;;;;;;;;;;;;;;;;2211216;59;1637;-68
2023/03/18 05:57:27;;;;;;;;;;;;;;;;;;2212129;67;1076;-68
2023/03/18 05:59:58;;;;;;;;;;;;;;;;;;2211782;67;1217;-68
2023/03/18 06:02:28;;;;;;;;;;;;;;;;;;2212024;67;1092;-68
2023/03/18 06:04:59;;;;;;;;;;;;;;;;;;2211899;67;1244;-68
2023/03/18 06:07:29;;;;;;;;;;;;;;;;;;2211072;67;1988;-69
2023/03/18 06:09:59;;;;;;;;;;;;;;;;;;2211533;67;1194;-69
2023/03/18 06:12:29;;;;;;;;;;;;;;;;;;2215364;66;1041;-69
2023/03/18 06:15:00;;;;;;;;;;;;;;;;;;2211907;67;1081;-69
2023/03/18 06:17:31;;;;;;;;;;;;;;;;;;2215131;59;1089;-68
2023/03/18 06:20:02;;;;;;;;;;;;;;;;;;2211634;67;1206;-68
2023/03/18 06:22:33;;;;;;;;;;;;;;;;;;2215119;66;1076;-68
2023/03/18 06:25:06;;;;;;;;;;;;;;;;;;2211851;67;1414;-69
2023/03/18 06:27:37;;;;;;;;;;;;;;;;;;2211885;67;1923;-69
2023/03/18 06:30:08;;;;;;;;;;;;;;;;;;2211976;67;1333;-68
2023/03/18 06:32:39;;;;;;;;;;;;;;;;;;2211553;66;1153;-69
2023/03/18 06:35:10;;;;;;;;;;;;;;;;;;2211452;59;1889;-68
2023/03/18 06:37:41;;;;;;;;;;;;;;;;;;2211329;67;1120;-69
2023/03/18 06:40:12;;;;;;;;;;;;;;;;;;2211828;66;1107;-68
2023/03/18 06:42:42;;;;;;;;;;;;;;;;;;2211487;66;1250;-68
2023/03/18 06:45:15;;;;;;;;;;;;;;;;;;2211726;67;1037;-68
2023/03/18 06:47:46;;;;;;;;;;;;;;;;;;2216195;59;1936;-69
2023/03/18 06:50:17;;;;;;;;;;;;;;;;;;2224771;67;1112;-69
2023/03/18 06:52:48;;;;;;;;;;;;;;;;;;2224589;67;1144;-68
2023/03/18 06:55:18;;;;;;;;;;;;;;;;;;2224040;67;1125;-69
2023/03/18 06:57:48;;;;;;;;;;;;;;;;;;2224326;67;1219;-68
2023/03/18 07:00:21;;;;;;;;;;;;;;;;;;2223107;66;1292;-69
2023/03/18 07:02:52;;;;;;;;;;;;;;;;;;2220804;67;1330;-69
2023/03/18 07:05:23;;;;;;;;;;;;;;;;;;2217621;67;1159;-69
2023/03/18 07:07:53;;;;;;;;;;;;;;;;;;2220560;67;1949;-71
2023/03/18 07:10:26;;;;;;;;;;;;;;;;;;2221041;66;1028;-68
2023/03/18 07:13:01;;;;;;;;;;;;;;;;;;2219960;67;1290;-69
2023/03/18 07:15:32;;;;;;;;;;;;;;;;;;2221898;67;1067;-69
2023/03/18 07:18:03;;;;;;;;;;;;;;;;;;2221994;67;1212;-69
2023/03/18 07:20:39;;;;;;;;;;;;;;;;;;2221406;67;970;-68
2023/03/18 07:23:10;;;;;;;;;;;;;;;;;;2222718;67;1040;-69
2023/03/18 07:25:41;;;;;;;;;;;;;;;;;;2221541;66;968;-69
2023/03/18 07:28:11;;;;;;;;;;;;;;;;;;2222508;66;1990;-69
2023/03/18 07:30:42;;;;;;;;;;;;;;;;;;2223692;67;1127;-69
2023/03/18 07:33:12;;;;;;;;;;;;;;;;;;2225980;67;1164;-69
2023/03/18 07:35:42;;;;;;;;;;;;;;;;;;2224813;66;1014;-69
2023/03/18 07:38:13;;;;;;;;;;;;;;;;;;2224232;67;1200;-69
2023/03/18 07:40:55;;;;;;;;;;;;;;;;;;2224810;66;1000;-69
2023/03/18 07:43:25;;;;;;;;;;;;;;;;;;2228242;66;1121;-69
2023/03/18 07:45:57;;;;;;;;;;;;;;;;;;2225367;59;1136;-69
2023/03/18 07:48:30;;;;;;;;;;;;;;;;;;2225070;66;1914;-69
2023/03/18 07:51:00;;;;;;;;;;;;;;;;;;2225183;66;1095;-69
2023/03/18 07:53:31;;;;;;;;;;;;;;;;;;2225066;58;1045;-69
2023/03/18 07:56:02;;;;;;;;;;;;;;;;;;2225462;67;1112;-69
2023/03/18 07:58:33;;;;;;;;;;;;;;;;;;2225414;66;1165;-69
2023/03/18 08:01:03;;;;;;;;;;;;;;;;;;2224816;67;1085;-69
2023/03/18 08:03:34;;;;;;;;;;;;;;;;;;2225061;59;1047;-69
2023/03/18 08:06:04;;;;;;;;;;;;;;;;;;2224135;67;1137;-70
2023/03/18 08:08:35;;;;;;;;;;;;;;;;;;2217777;66;1948;-69
2023/03/18 08:11:07;;;;;;;;;;;;;;;;;;2212621;67;1312;-69
2023/03/18 08:13:38;;;;;;;;;;;;;;;;;;2212875;59;2184;-69
2023/03/18 08:16:08;;;;;;;;;;;;;;;;;;2213319;66;1253;-69
2023/03/18 08:18:39;;;;;;;;;;;;;;;;;;2215532;59;1319;-69
2023/03/18 08:21:10;;;;;;;;;;;;;;;;;;2212203;67;1076;-69
2023/03/18 08:23:41;;;;;;;;;;;;;;;;;;2211885;59;1288;-69
2023/03/18 08:26:12;;;;;;;;;;;;;;;;;;2215362;66;1991;-69
2023/03/18 08:28:42;;;;;;;;;;;;;;;;;;2212187;59;1241;-69
2023/03/18 08:31:13;;;;;;;;;;;;;;;;;;2212838;67;1155;-69
2023/03/18 08:33:43;;;;;;;;;;;;;;;;;;2215580;66;1241;-69
2023/03/18 08:36:14;;;;;;;;;;;;;;;;;;2212732;67;1097;-69
2023/03/18 08:38:44;;;;;;;;;;;;;;;;;;2215198;66;1239;-69
2023/03/18 08:41:15;;;;;;;;;;;;;;;;;;2212727;67;1224;-69
2023/03/18 08:43:54;;;;;;;;;;;;;;;;;;2213250;66;1205;-69
2023/03/18 08:46:24;;;;;;;;;;;;;;;;;;2215618;58;1932;-69
2023/03/18 08:48:55;;;;;;;;;;;;;;;;;;2211827;67;1223;-69
2023/03/18 08:51:25;;;;;;;;;;;;;;;;;;2212231;66;1115;-69
2023/03/18 08:53:56;;;;;;;;;;;;;;;;;;2212802;67;1100;-69
2023/03/18 08:56:26;;;;;;;;;;;;;;;;;;2212668;67;1067;-69
2023/03/18 08:58:56;;;;;;;;;;;;;;;;;;2212721;67;1175;-69
2023/03/18 09:01:26;;;;;;;;;;;;;;;;;;2213003;67;982;-69
2023/03/18 09:03:58;;;;;;;;;;;;;;;;;;2212599;67;1041;-69
2023/03/18 09:06:28;;;;;;;;;;;;;;;;;;2212696;66;1987;-69
2023/03/18 09:08:59;;;;;;;;;;;;;;;;;;2212227;67;1412;-70
2023/03/18 09:11:29;;;;;;;;;;;;;;;;;;2212417;67;1048;-69
2023/03/18 09:13:59;;;;;;;;;;;;;;;;;;2213003;67;964;-69
2023/03/18 09:16:30;;;;;;;;;;;;;;;;;;2212573;67;1099;-69
2023/03/18 09:19:00;;;;;;;;;;;;;;;;;;2212458;59;1223;-69
2023/03/18 09:21:31;;;;;;;;;;;;;;;;;;2212579;67;1222;-69
2023/03/18 09:24:01;;;;;;;;;;;;;;;;;;2207711;67;1419;-69
2023/03/18 09:26:31;;;;;;;;;;;;;;;;;;2212656;59;1925;-69
2023/03/18 09:29:01;;;;;;;;;;;;;;;;;;2211955;59;1297;-70
2023/03/18 09:31:32;;;;;;;;;;;;;;;;;;2212730;59;966;-69
2023/03/18 09:34:02;;;;;;;;;;;;;;;;;;2212140;67;1154;-69
2023/03/18 09:36:32;;;;;;;;;;;;;;;;;;2212278;66;1005;-69
2023/03/18 09:39:03;;;;;;;;;;;;;;;;;;2211696;67;1244;-69
2023/03/18 09:41:44;;;;;;;;;;;;;;;;;;2212716;67;1106;-70
2023/03/18 09:44:21;;;;;;;;;;;;;;;;;;2210887;67;1271;-69
2023/03/18 09:46:58;;;;;;;;;;;;;;;;;;2212901;59;1996;-69
2023/03/18 09:49:47;;;;;;;;;;;;;;;;;;2212561;67;1287;-69
2023/03/18 09:52:28;;;;;;;;;;;;;;;;;;2212521;67;1188;-69
2023/03/18 09:55:04;;;;;;;;;;;;;;;;;;2214466;66;1060;-69
2023/03/18 09:57:41;;;;;;;;;;;;;;;;;;2211831;67;1072;-69
2023/03/18 10:00:17;;;;;;;;;;;;;;;;;;2214814;66;1144;-69
2023/03/18 10:02:54;;;;;;;;;;;;;;;;;;2212048;67;1172;-69
2023/03/18 10:05:28;;;;;;;;;;;;;;;;;;2212466;67;1203;-69
2023/03/18 10:08:03;;;;;;;;;;;;;;;;;;2212686;59;1920;-69
2023/03/18 10:10:36;;;;;;;;;;;;;;;;;;2213017;66;1063;-69
2023/03/18 10:13:19;;;;;;;;;;;;;;;;;;2211932;67;1144;-69
2023/03/18 10:15:52;;;;;;;;;;;;;;;;;;2212416;67;1290;-69
2023/03/18 10:18:30;;;;;;;;;;;;;;;;;;2212569;59;1272;-69
2023/03/18 10:21:07;;;;;;;;;;;;;;;;;;2212090;66;1161;-69
2023/03/18 10:23:53;;;;;;;;;;;;;;;;;;2211958;67;1066;-69
2023/03/18 10:26:44;;;;;;;;;;;;;;;;;;2212316;66;1929;-69
2023/03/18 10:29:24;;;;;;;;;;;;;;;;;;2203607;66;1354;-70
2023/03/18 10:32:10;;;;;;;;;;;;;;;;;;2212389;67;1065;-70
2023/03/18 10:34:48;;;;;;;;;;;;;;;;;;2211922;67;1134;-69
2023/03/18 10:37:27;;;;;;;;;;;;;;;;;;2212231;67;1115;-69
2023/03/18 10:39:58;;;;;;;;;;;;;;;;;;2212127;59;1135;-69
2023/03/18 10:42:30;;;;;;;;;;;;;;;;;;2212120;67;1107;-69
2023/03/18 10:45:14;;;;;;;;;;;;;;;;;;2211817;66;1111;-69
2023/03/18 10:47:46;;;;;;;;;;;;;;;;;;2212274;59;1919;-69
2023/03/18 10:50:20;;;;;;;;;;;;;;;;;;2212592;67;1291;-69
2023/03/18 10:52:58;;;;;;;;;;;;;;;;;;2212516;59;1556;-69
2023/03/18 10:55:34;;;;;;;;;;;;;;;;;;2212552;67;1208;-69
2023/03/18 10:58:14;;;;;;;;;;;;;;;;;;2212112;67;1228;-71
2023/03/18 11:00:44;;;;;;;;;;;;;;;;;;2212723;67;965;-69
2023/03/18 11:03:19;;;;;;;;;;;;;;;;;;2212722;66;993;-69
2023/03/18 11:05:50;;;;;;;;;;;;;;;;;;2212834;67;1243;-69
2023/03/18 11:08:27;;;;;;;;;;;;;;;;;;2212774;66;1974;-70
2023/03/18 11:11:00;;;;;;;;;;;;;;;;;;2212184;67;1046;-69
2023/03/18 11:13:32;;;;;;;;;;;;;;;;;;2212636;66;1046;-69
2023/03/18 11:16:03;;;;;;;;;;;;;;;;;;2212783;66;1185;-69
2023/03/18 11:18:36;;;;;;;;;;;;;;;;;;2212597;67;1384;-69
2023/03/18 11:21:11;;;;;;;;;;;;;;;;;;2213041;66;1082;-69
2023/03/18 11:23:55;;;;;;;;;;;;;;;;;;2212439;67;1112;-69
2023/03/18 11:26:26;;;;;;;;;;;;;;;;;;2212684;66;1990;-69
2023/03/18 11:28:57;;;;;;;;;;;;;;;;;;2212539;67;1232;-69
2023/03/18 11:31:28;;;;;;;;;;;;;;;;;;2212577;67;1136;-69
2023/03/18 11:33:59;;;;;;;;;;;;;;;;;;2215301;66;1075;-69
2023/03/18 11:36:31;;;;;;;;;;;;;;;;;;2212499;67;1106;-69
2023/03/18 11:39:03;;;;;;;;;;;;;;;;;;2212505;66;1189;-70
2023/03/18 11:41:36;;;;;;;;;;;;;;;;;;2212701;66;1255;-69
2023/03/18 11:44:15;;;;;;;;;;;;;;;;;;2212157;67;1106;-69
2023/03/18 11:46:48;;;;;;;;;;;;;;;;;;2212017;59;1949;-69
2023/03/18 11:49:21;;;;;;;;;;;;;;;;;;2211770;67;1266;-69
2023/03/18 11:52:05;;;;;;;;;;;;;;;;;;2212473;67;1034;-69
2023/03/18 11:54:42;;;;;;;;;;;;;;;;;;2212642;66;1013;-70
2023/03/18 11:57:19;;;;;;;;;;;;;;;;;;2212748;67;1326;-69
2023/03/18 11:59:52;;;;;;;;;;;;;;;;;;2214948;66;1311;-69
2023/03/18 12:02:41;;;;;;;;;;;;;;;;;;2212682;67;1148;-70
2023/03/18 12:05:19;;;;;;;;;;;;;;;;;;2212611;59;1151;-69
2023/03/18 12:07:59;;;;;;;;;;;;;;;;;;2212236;66;1927;-69
2023/03/18 12:10:34;;;;;;;;;;;;;;;;;;2212127;67;1131;-69
2023/03/18 12:13:11;;;;;;;;;;;;;;;;;;2211582;67;1195;-69
2023/03/18 12:16:05;;;;;;;;;;;;;;;;;;2212426;67;1151;-69
2023/03/18 12:18:51;;;;;;;;;;;;;;;;;;2215276;66;1273;-69
2023/03/18 12:21:39;;;;;;;;;;;;;;;;;;2212399;59;1183;-69
2023/03/18 12:24:38;;;;;;;;;;;;;;;;;;2212074;67;1093;-69
2023/03/18 12:27:22;;;;;;;;;;;;;;;;;;2212820;67;1947;-69
2023/03/18 12:30:17;;;;;;;;;;;;;;;;;;2212696;66;1250;-69
2023/03/18 12:33:08;;;;;;;;;;;;;;;;;;2208361;67;1289;-69
2023/03/18 12:35:48;;;;;;;;;;;;;;;;;;2212342;66;1102;-69
2023/03/18 12:38:33;;;;;;;;;;;;;;;;;;2212645;66;1299;-69
2023/03/18 12:41:17;;;;;;;;;;;;;;;;;;2212178;67;1502;-69
2023/03/18 12:44:08;;;;;;;;;;;;;;;;;;2212203;66;1210;-69
2023/03/18 12:46:50;;;;;;;;;;;;;;;;;;2212655;59;1990;-69
2023/03/18 12:49:31;;;;;;;;;;;;;;;;;;2212679;66;1289;-69
2023/03/18 12:52:06;;;;;;;;;;;;;;;;;;2212755;66;1068;-69
2023/03/18 12:54:49;;;;;;;;;;;;;;;;;;2212859;66;1193;-69
2023/03/18 12:57:23;;;;;;;;;;;;;;;;;;2212509;67;978;-69
2023/03/18 13:00:01;;;;;;;;;;;;;;;;;;2212514;59;1292;-69
2023/03/18 13:02:44;;;;;;;;;;;;;;;;;;2213442;66;1099;-69
2023/03/18 13:05:28;;;;;;;;;;;;;;;;;;2212570;67;1224;-69
2023/03/18 13:08:16;;;;;;;;;;;;;;;;;;2212058;67;1935;-69
2023/03/18 13:10:53;;;;;;;;;;;;;;;;;;2212403;67;1136;-69
2023/03/18 13:13:25;;;;;;;;;;;;;;;;;;2212613;67;1059;-69
2023/03/18 13:15:55;;;;;;;;;;;;;;;;;;2211589;66;1224;-69
2023/03/18 13:18:41;;;;;;;;;;;;;;;;;;2212344;67;1238;-69
2023/03/18 13:21:14;;;;;;;;;;;;;;;;;;2211981;67;986;-69
2023/03/18 13:24:03;;;;;;;;;;;;;;;;;;2212651;66;1148;-69
2023/03/18 13:26:46;;;;;;;;;;;;;;;;;;2211840;67;2028;-69
2023/03/18 13:29:23;;;;;;;;;;;;;;;;;;2212535;67;1277;-69
2023/03/18 13:31:54;;;;;;;;;;;;;;;;;;2214738;66;1300;-69
2023/03/18 13:34:37;;;;;;;;;;;;;;;;;;2212055;59;1659;-69
2023/03/18 13:37:28;;;;;;;;;;;;;;;;;;2212426;66;1407;-69
2023/03/18 13:40:16;;;;;;;;;;;;;;;;;;2211788;59;1236;-69
2023/03/18 13:42:48;;;;;;;;;;;;;;;;;;2212373;66;1318;-69
2023/03/18 13:45:37;;;;;;;;;;;;;;;;;;2212911;67;1162;-69
2023/03/18 13:48:19;;;;;;;;;;;;;;;;;;2212640;59;1932;-69
2023/03/18 13:50:50;;;;;;;;;;;;;;;;;;2213059;67;1205;-69
2023/03/18 13:53:24;;;;;;;;;;;;;;;;;;2212605;67;1114;-69
2023/03/18 13:55:55;;;;;;;;;;;;;;;;;;2212709;66;1008;-69
2023/03/18 13:58:27;;;;;;;;;;;;;;;;;;2213231;67;1242;-69
2023/03/18 14:01:03;;;;;;;;;;;;;;;;;;2212842;67;1133;-69
2023/03/18 14:03:42;;;;;;;;;;;;;;;;;;2213024;67;1130;-69
2023/03/18 14:06:37;;;;;;;;;;;;;;;;;;2212913;67;1149;-69
2023/03/18 14:09:26;;;;;;;;;;;;;;;;;;2213005;67;1286;-69
2023/03/18 14:12:03;;;;;;;;;;;;;;;;;;2213003;66;1081;-69
2023/03/18 14:14:38;;;;;;;;;;;;;;;;;;2212747;67;1018;-69
2023/03/18 14:17:21;;;;;;;;;;;;;;;;;;2213043;67;1068;-69
2023/03/18 14:19:52;;;;;;;;;;;;;;;;;;2212860;66;1308;-69
2023/03/18 14:22:28;;;;;;;;;;;;;;;;;;2213632;67;1098;-69
2023/03/18 14:25:16;;;;;;;;;;;;;;;;;;2212983;67;1037;-70
2023/03/18 14:27:53;;;;;;;;;;;;;;;;;;2215793;66;1933;-69
2023/03/18 14:30:33;;;;;;;;;;;;;;;;;;2212789;67;1132;-69
2023/03/18 14:33:19;;;;;;;;;;;;;;;;;;2214394;66;1238;-69
2023/03/18 14:35:57;;;;;;;;;;;;;;;;;;2220706;67;1200;-69
2023/03/18 14:38:37;;;;;;;;;;;;;;;;;;2222671;66;1150;-69
2023/03/18 14:41:13;;;;;;;;;;;;;;;;;;2224171;67;1090;-69
2023/03/18 14:43:51;;;;;;;;;;;;;;;;;;2224121;66;1155;-69
2023/03/18 14:46:26;;;;;;;;;;;;;;;;;;2224941;59;1061;-69
2023/03/18 14:48:56;;;;;;;;;;;;;;;;;;2223968;67;1971;-69
2023/03/18 14:51:28;;;;;;;;;;;;;;;;;;2224104;67;1081;-69
2023/03/18 14:54:04;;;;;;;;;;;;;;;;;;2224068;67;1180;-69
2023/03/18 14:56:39;;;;;;;;;;;;;;;;;;2223799;67;955;-69
2023/03/18 14:59:13;;;;;;;;;;;;;;;;;;2224090;66;1148;-69
2023/03/18 15:01:45;;;;;;;;;;;;;;;;;;2226403;66;998;-69
2023/03/18 15:04:17;;;;;;;;;;;;;;;;;;2225587;66;1109;-69
2023/03/18 15:06:49;;;;;;;;;;;;;;;;;;2217774;59;1919;-69
2023/03/18 15:09:25;;;;;;;;;;;;;;;;;;2212381;67;1244;-69
2023/03/18 15:11:56;;;;;;;;;;;;;;;;;;2212087;67;1108;-69
2023/03/18 15:14:28;;;;;;;;;;;;;;;;;;2213046;67;1084;-69
2023/03/18 15:17:00;;;;;;;;;;;;;;;;;;2211802;67;1139;-69
2023/03/18 15:19:31;;;;;;;;;;;;;;;;;;2212095;66;1245;-69
2023/03/18 15:22:03;;;;;;;;;;;;;;;;;;2211206;67;1160;-69
2023/03/18 15:24:34;;;;;;;;;;;;;;;;;;2212168;66;1164;-69
2023/03/18 15:27:07;;;;;;;;;;;;;;;;;;2212121;67;1933;-69
2023/03/18 15:29:51;;;;;;;;;;;;;;;;;;2212309;66;1242;-69
2023/03/18 15:32:22;;;;;;;;;;;;;;;;;;2212101;67;1156;-69
2023/03/18 15:35:11;;;;;;;;;;;;;;;;;;2212515;67;1042;-69
2023/03/18 15:37:43;;;;;;;;;;;;;;;;;;2212885;67;1244;-69
2023/03/18 15:40:37;;;;;;;;;;;;;;;;;;2212852;67;1275;-69
2023/03/18 15:43:07;;;;;;;;;;;;;;;;;;2212604;67;1112;-69
2023/03/18 15:45:44;;;;;;;;;;;;;;;;;;2214912;59;1468;-69
2023/03/18 15:48:22;;;;;;;;;;;;;;;;;;2212689;59;1991;-69
2023/03/18 15:50:54;;;;;;;;;;;;;;;;;;2212452;59;1156;-69
2023/03/18 15:53:29;;;;;;;;;;;;;;;;;;2212624;66;1124;-69
2023/03/18 15:56:10;;;;;;;;;;;;;;;;;;2212603;67;1017;-69
2023/03/18 15:58:43;;;;;;;;;;;;;;;;;;2212920;67;1229;-69
2023/03/18 16:01:16;;;;;;;;;;;;;;;;;;2212257;59;1060;-69
2023/03/18 16:03:46;;;;;;;;;;;;;;;;;;2214820;66;1077;-69
2023/03/18 16:06:16;;;;;;;;;;;;;;;;;;2212695;67;1278;-68
2023/03/18 16:08:48;;;;;;;;;;;;;;;;;;2213023;59;1939;-69
2023/03/18 16:11:21;;;;;;;;;;;;;;;;;;2212109;67;1055;-69
2023/03/18 16:13:51;;;;;;;;;;;;;;;;;;2212099;67;1219;-68
2023/03/18 16:16:28;;;;;;;;;;;;;;;;;;2212558;66;1009;-69
2023/03/18 16:18:58;;;;;;;;;;;;;;;;;;2212039;67;1222;-68
2023/03/18 16:21:28;;;;;;;;;;;;;;;;;;2212552;66;1070;-69
2023/03/18 16:23:59;;;;;;;;;;;;;;;;;;2211801;67;1128;-69
2023/03/18 16:26:30;;;;;;;;;;;;;;;;;;2212909;67;1096;-69
2023/03/18 16:29:01;;;;;;;;;;;;;;;;;;2214627;66;1946;-69
2023/03/18 16:31:31;;;;;;;;;;;;;;;;;;2212901;67;1078;-69
2023/03/18 16:34:02;;;;;;;;;;;;;;;;;;2215193;59;1194;-69
2023/03/18 16:36:33;;;;;;;;;;;;;;;;;;2212154;67;1104;-69
2023/03/18 16:39:15;;;;;;;;;;;;;;;;;;2211872;59;1255;-69
2023/03/18 16:41:46;;;;;;;;;;;;;;;;;;2211933;67;1103;-69
2023/03/18 16:44:17;;;;;;;;;;;;;;;;;;2210966;67;1113;-69
2023/03/18 16:46:50;;;;;;;;;;;;;;;;;;2211958;59;1929;-69
2023/03/18 16:49:23;;;;;;;;;;;;;;;;;;2212800;67;1281;-69
2023/03/18 16:51:53;;;;;;;;;;;;;;;;;;2212196;66;1020;-69
2023/03/18 16:54:26;;;;;;;;;;;;;;;;;;2212518;59;1177;-69
2023/03/18 16:56:58;;;;;;;;;;;;;;;;;;2212666;66;1055;-69
2023/03/18 16:59:30;;;;;;;;;;;;;;;;;;2212461;59;1573;-69
2023/03/18 17:02:00;;;;;;;;;;;;;;;;;;2212501;66;1106;-69
2023/03/18 17:04:32;;;;;;;;;;;;;;;;;;2211620;67;1077;-68
2023/03/18 17:07:03;;;;;;;;;;;;;;;;;;2211666;59;2144;-69
2023/03/18 17:09:33;;;;;;;;;;;;;;;;;;2212487;67;1242;-69
2023/03/18 17:12:05;;;;;;;;;;;;;;;;;;2212546;59;1198;-69
2023/03/18 17:14:38;;;;;;;;;;;;;;;;;;2212179;67;1005;-69
2023/03/18 17:17:17;;;;;;;;;;;;;;;;;;2212769;66;1079;-68
2023/03/18 17:19:47;;;;;;;;;;;;;;;;;;2212575;67;1242;-69
2023/03/18 17:22:19;;;;;;;;;;;;;;;;;;2211976;67;1246;-69
2023/03/18 17:24:49;;;;;;;;;;;;;;;;;;2212169;67;1125;-68
2023/03/18 17:27:24;;;;;;;;;;;;;;;;;;2212820;66;2283;-69
2023/03/18 17:29:55;;;;;;;;;;;;;;;;;;2212695;67;1191;-68
2023/03/18 17:32:26;;;;;;;;;;;;;;;;;;2212204;59;993;-69
2023/03/18 17:34:56;;;;;;;;;;;;;;;;;;2211421;67;1072;-69
2023/03/18 17:37:27;;;;;;;;;;;;;;;;;;2211831;67;1076;-69
2023/03/18 17:39:57;;;;;;;;;;;;;;;;;;2212005;59;1159;-69
2023/03/18 17:42:30;;;;;;;;;;;;;;;;;;2212655;67;1073;-68
2023/03/18 17:45:05;;;;;;;;;;;;;;;;;;2212116;66;1300;-69
2023/03/18 17:47:35;;;;;;;;;;;;;;;;;;2212537;59;1933;-69
2023/03/18 17:50:07;;;;;;;;;;;;;;;;;;2214325;59;1364;-68